sensor_id;sensor_type;location;lat;lon;timestamp;temperature;humidity
2897;DHT22;1458;49.728;9.228;2022-07-12T00:02:11;14.40;99.90
2897;DHT22;1458;49.728;9.228;2022-07-12T00:04:39;14.40;99.90
2897;DHT22;1458;49.728;9.228;2022-07-12T00:07:09;14.30;99.90
2897;DHT22;1458;49.728;9.228;2022-07-12T00:09:37;14.40;99.90
2897;DHT22;1458;49.728;9.228;2022-07-12T00:12:08;14.40;99.90
2897;DHT22;1458;49.728;9.228;2022-07-12T00:14:36;14.40;99.90
2897;DHT22;1458;49.728;9.228;2022-07-12T00:17:04;14.30;99.90
2897;DHT22;1458;49.728;9.228;2022-07-12T00:19:32;14.30;99.90
2897;DHT22;1458;49.728;9.228;2022-07-12T00:22:01;14.40;99.90
2897;DHT22;1458;49.728;9.228;2022-07-12T00:24:38;14.40;99.90
2897;DHT22;1458;49.728;9.228;2022-07-12T00:27:06;14.30;99.90
2897;DHT22;1458;49.728;9.228;2022-07-12T00:29:34;14.20;99.90
2897;DHT22;1458;49.728;9.228;2022-07-12T00:32:03;14.10;99.90
2897;DHT22;1458;49.728;9.228;2022-07-12T00:34:31;14.00;99.90
2897;DHT22;1458;49.728;9.228;2022-07-12T00:37:00;13.80;99.90
2897;DHT22;1458;49.728;9.228;2022-07-12T00:39:28;13.80;99.90
2897;DHT22;1458;49.728;9.228;2022-07-12T00:41:59;13.60;99.90
2897;DHT22;1458;49.728;9.228;2022-07-12T00:44:28;13.60;99.90
2897;DHT22;1458;49.728;9.228;2022-07-12T00:46:59;13.50;99.90
2897;DHT22;1458;49.728;9.228;2022-07-12T00:49:27;13.60;99.90
2897;DHT22;1458;49.728;9.228;2022-07-12T00:51:55;13.60;99.90
2897;DHT22;1458;49.728;9.228;2022-07-12T00:54:24;13.50;99.90
2897;DHT22;1458;49.728;9.228;2022-07-12T00:56:52;13.50;99.90
2897;DHT22;1458;49.728;9.228;2022-07-12T00:59:21;13.70;99.90
2897;DHT22;1458;49.728;9.228;2022-07-12T01:01:48;13.60;99.90
2897;DHT22;1458;49.728;9.228;2022-07-12T01:04:16;13.60;99.90
2897;DHT22;1458;49.728;9.228;2022-07-12T01:06:44;13.50;99.90
2897;DHT22;1458;49.728;9.228;2022-07-12T01:09:16;13.50;99.90
2897;DHT22;1458;49.728;9.228;2022-07-12T01:11:43;13.40;99.90
2897;DHT22;1458;49.728;9.228;2022-07-12T01:14:12;13.40;99.90
2897;DHT22;1458;49.728;9.228;2022-07-12T01:16:44;13.20;99.90
2897;DHT22;1458;49.728;9.228;2022-07-12T01:19:20;13.20;99.90
2897;DHT22;1458;49.728;9.228;2022-07-12T01:21:51;13.20;99.90
2897;DHT22;1458;49.728;9.228;2022-07-12T01:24:21;13.40;99.90
2897;DHT22;1458;49.728;9.228;2022-07-12T01:26:50;13.30;99.90
2897;DHT22;1458;49.728;9.228;2022-07-12T01:29:18;13.20;99.90
2897;DHT22;1458;49.728;9.228;2022-07-12T01:31:46;13.20;99.90
2897;DHT22;1458;49.728;9.228;2022-07-12T01:34:14;13.10;99.90
2897;DHT22;1458;49.728;9.228;2022-07-12T01:36:44;13.10;99.90
2897;DHT22;1458;49.728;9.228;2022-07-12T01:39:11;13.00;99.90
2897;DHT22;1458;49.728;9.228;2022-07-12T01:41:41;13.10;99.90
2897;DHT22;1458;49.728;9.228;2022-07-12T01:44:08;13.00;99.90
2897;DHT22;1458;49.728;9.228;2022-07-12T01:46:37;12.90;99.90
2897;DHT22;1458;49.728;9.228;2022-07-12T01:49:05;12.80;99.90
2897;DHT22;1458;49.728;9.228;2022-07-12T01:51:32;12.80;99.90
2897;DHT22;1458;49.728;9.228;2022-07-12T01:54:00;12.70;99.90
2897;DHT22;1458;49.728;9.228;2022-07-12T01:56:28;12.70;99.90
2897;DHT22;1458;49.728;9.228;2022-07-12T01:58:58;12.70;99.90
2897;DHT22;1458;49.728;9.228;2022-07-12T02:01:27;12.70;99.90
2897;DHT22;1458;49.728;9.228;2022-07-12T02:03:55;12.80;99.90
2897;DHT22;1458;49.728;9.228;2022-07-12T02:06:22;12.80;99.90
2897;DHT22;1458;49.728;9.228;2022-07-12T02:08:50;12.80;99.90
2897;DHT22;1458;49.728;9.228;2022-07-12T02:11:18;12.70;99.90
2897;DHT22;1458;49.728;9.228;2022-07-12T02:13:45;12.60;99.90
2897;DHT22;1458;49.728;9.228;2022-07-12T02:16:14;12.70;99.90
2897;DHT22;1458;49.728;9.228;2022-07-12T02:18:41;12.60;99.90
2897;DHT22;1458;49.728;9.228;2022-07-12T02:21:09;12.50;99.90
2897;DHT22;1458;49.728;9.228;2022-07-12T02:23:36;12.40;99.90
2897;DHT22;1458;49.728;9.228;2022-07-12T02:26:07;12.40;99.90
2897;DHT22;1458;49.728;9.228;2022-07-12T02:28:34;12.40;99.90
2897;DHT22;1458;49.728;9.228;2022-07-12T02:31:08;12.40;99.90
2897;DHT22;1458;49.728;9.228;2022-07-12T02:33:37;12.30;99.90
2897;DHT22;1458;49.728;9.228;2022-07-12T02:36:08;12.30;99.90
2897;DHT22;1458;49.728;9.228;2022-07-12T02:38:35;12.40;99.90
2897;DHT22;1458;49.728;9.228;2022-07-12T02:41:07;12.30;99.90
2897;DHT22;1458;49.728;9.228;2022-07-12T02:43:37;12.30;99.90
2897;DHT22;1458;49.728;9.228;2022-07-12T02:46:08;12.30;99.90
2897;DHT22;1458;49.728;9.228;2022-07-12T02:48:39;12.30;99.90
2897;DHT22;1458;49.728;9.228;2022-07-12T02:51:07;12.20;99.90
2897;DHT22;1458;49.728;9.228;2022-07-12T02:53:35;12.30;99.90
2897;DHT22;1458;49.728;9.228;2022-07-12T02:56:07;12.20;99.90
2897;DHT22;1458;49.728;9.228;2022-07-12T02:58:34;12.10;99.90
2897;DHT22;1458;49.728;9.228;2022-07-12T03:01:05;12.10;99.90
2897;DHT22;1458;49.728;9.228;2022-07-12T03:03:33;12.10;99.90
2897;DHT22;1458;49.728;9.228;2022-07-12T03:06:06;12.00;99.90
2897;DHT22;1458;49.728;9.228;2022-07-12T03:08:33;12.00;99.90
2897;DHT22;1458;49.728;9.228;2022-07-12T03:11:01;12.10;99.90
2897;DHT22;1458;49.728;9.228;2022-07-12T03:13:31;12.20;99.90
2897;DHT22;1458;49.728;9.228;2022-07-12T03:15:59;12.10;99.90
2897;DHT22;1458;49.728;9.228;2022-07-12T03:18:26;11.90;99.90
2897;DHT22;1458;49.728;9.228;2022-07-12T03:20:54;11.80;99.90
2897;DHT22;1458;49.728;9.228;2022-07-12T03:23:23;11.80;99.90
2897;DHT22;1458;49.728;9.228;2022-07-12T03:25:50;11.70;99.90
2897;DHT22;1458;49.728;9.228;2022-07-12T03:28:18;11.70;99.90
2897;DHT22;1458;49.728;9.228;2022-07-12T03:30:45;11.70;99.90
2897;DHT22;1458;49.728;9.228;2022-07-12T03:33:13;11.80;99.90
2897;DHT22;1458;49.728;9.228;2022-07-12T03:35:40;11.90;99.90
2897;DHT22;1458;49.728;9.228;2022-07-12T03:38:07;12.00;99.90
2897;DHT22;1458;49.728;9.228;2022-07-12T03:40:36;11.90;99.90
2897;DHT22;1458;49.728;9.228;2022-07-12T03:43:04;11.80;99.90
2897;DHT22;1458;49.728;9.228;2022-07-12T03:45:32;11.80;99.90
2897;DHT22;1458;49.728;9.228;2022-07-12T03:48:00;11.80;99.90
2897;DHT22;1458;49.728;9.228;2022-07-12T03:50:27;11.80;99.90
2897;DHT22;1458;49.728;9.228;2022-07-12T03:52:55;11.80;99.90
2897;DHT22;1458;49.728;9.228;2022-07-12T03:55:22;11.80;99.90
2897;DHT22;1458;49.728;9.228;2022-07-12T03:57:51;12.00;99.90
2897;DHT22;1458;49.728;9.228;2022-07-12T04:00:19;11.90;99.90
2897;DHT22;1458;49.728;9.228;2022-07-12T04:02:46;12.00;99.90
2897;DHT22;1458;49.728;9.228;2022-07-12T04:05:13;12.10;99.90
2897;DHT22;1458;49.728;9.228;2022-07-12T04:07:41;12.10;99.90
2897;DHT22;1458;49.728;9.228;2022-07-12T04:10:09;12.00;99.90
2897;DHT22;1458;49.728;9.228;2022-07-12T04:12:37;11.90;99.90
2897;DHT22;1458;49.728;9.228;2022-07-12T04:15:08;11.80;99.90
2897;DHT22;1458;49.728;9.228;2022-07-12T04:17:35;11.90;99.90
2897;DHT22;1458;49.728;9.228;2022-07-12T04:20:03;11.90;99.90
2897;DHT22;1458;49.728;9.228;2022-07-12T04:22:32;11.90;99.90
2897;DHT22;1458;49.728;9.228;2022-07-12T04:24:59;11.90;99.90
2897;DHT22;1458;49.728;9.228;2022-07-12T04:27:27;11.80;99.90
2897;DHT22;1458;49.728;9.228;2022-07-12T04:29:54;12.00;99.90
2897;DHT22;1458;49.728;9.228;2022-07-12T04:32:27;12.60;99.90
2897;DHT22;1458;49.728;9.228;2022-07-12T04:34:55;14.30;99.90
2897;DHT22;1458;49.728;9.228;2022-07-12T04:37:23;16.10;99.90
2897;DHT22;1458;49.728;9.228;2022-07-12T04:39:50;16.70;99.90
2897;DHT22;1458;49.728;9.228;2022-07-12T04:42:18;17.80;97.80
2897;DHT22;1458;49.728;9.228;2022-07-12T04:44:46;18.70;93.20
2897;DHT22;1458;49.728;9.228;2022-07-12T04:47:13;19.30;89.30
2897;DHT22;1458;49.728;9.228;2022-07-12T04:49:42;19.90;83.40
2897;DHT22;1458;49.728;9.228;2022-07-12T04:52:10;20.00;81.50
2897;DHT22;1458;49.728;9.228;2022-07-12T04:54:37;20.50;77.80
2897;DHT22;1458;49.728;9.228;2022-07-12T04:57:08;20.90;75.40
2897;DHT22;1458;49.728;9.228;2022-07-12T04:59:36;21.30;73.60
2897;DHT22;1458;49.728;9.228;2022-07-12T05:02:04;21.60;70.40
2897;DHT22;1458;49.728;9.228;2022-07-12T05:04:32;21.90;68.20
2897;DHT22;1458;49.728;9.228;2022-07-12T05:07:02;21.90;67.20
2897;DHT22;1458;49.728;9.228;2022-07-12T05:09:29;21.90;68.70
2897;DHT22;1458;49.728;9.228;2022-07-12T05:11:57;21.70;65.90
2897;DHT22;1458;49.728;9.228;2022-07-12T05:14:24;21.90;66.40
2897;DHT22;1458;49.728;9.228;2022-07-12T05:16:52;22.10;65.90
2897;DHT22;1458;49.728;9.228;2022-07-12T05:19:20;22.40;65.10
2897;DHT22;1458;49.728;9.228;2022-07-12T05:21:47;22.40;65.20
2897;DHT22;1458;49.728;9.228;2022-07-12T05:24:16;22.30;65.50
2897;DHT22;1458;49.728;9.228;2022-07-12T05:26:44;22.30;65.30
2897;DHT22;1458;49.728;9.228;2022-07-12T05:29:11;22.30;66.00
2897;DHT22;1458;49.728;9.228;2022-07-12T05:31:39;22.20;67.30
2897;DHT22;1458;49.728;9.228;2022-07-12T05:34:07;21.60;69.20
2897;DHT22;1458;49.728;9.228;2022-07-12T05:36:38;21.00;73.00
2897;DHT22;1458;49.728;9.228;2022-07-12T05:39:06;20.50;76.60
2897;DHT22;1458;49.728;9.228;2022-07-12T05:41:35;20.20;78.50
2897;DHT22;1458;49.728;9.228;2022-07-12T05:44:03;19.80;78.60
2897;DHT22;1458;49.728;9.228;2022-07-12T05:46:30;19.70;80.00
2897;DHT22;1458;49.728;9.228;2022-07-12T05:48:58;19.60;81.10
2897;DHT22;1458;49.728;9.228;2022-07-12T05:51:25;19.60;80.70
2897;DHT22;1458;49.728;9.228;2022-07-12T05:54:10;19.60;81.60
2897;DHT22;1458;49.728;9.228;2022-07-12T05:56:39;19.60;82.60
2897;DHT22;1458;49.728;9.228;2022-07-12T05:59:06;19.60;83.70
2897;DHT22;1458;49.728;9.228;2022-07-12T06:01:35;19.40;83.60
2897;DHT22;1458;49.728;9.228;2022-07-12T06:04:03;19.40;83.70
2897;DHT22;1458;49.728;9.228;2022-07-12T06:06:31;19.50;85.20
2897;DHT22;1458;49.728;9.228;2022-07-12T06:08:58;19.60;85.50
2897;DHT22;1458;49.728;9.228;2022-07-12T06:11:26;19.60;85.20
2897;DHT22;1458;49.728;9.228;2022-07-12T06:13:55;19.80;85.00
2897;DHT22;1458;49.728;9.228;2022-07-12T06:16:22;19.50;85.80
2897;DHT22;1458;49.728;9.228;2022-07-12T06:18:50;19.30;86.70
2897;DHT22;1458;49.728;9.228;2022-07-12T06:21:17;19.50;87.40
2897;DHT22;1458;49.728;9.228;2022-07-12T06:23:45;19.40;87.20
2897;DHT22;1458;49.728;9.228;2022-07-12T06:26:12;19.30;87.10
2897;DHT22;1458;49.728;9.228;2022-07-12T06:28:39;19.30;87.10
2897;DHT22;1458;49.728;9.228;2022-07-12T06:31:09;19.50;87.60
2897;DHT22;1458;49.728;9.228;2022-07-12T06:33:36;19.40;87.70
2897;DHT22;1458;49.728;9.228;2022-07-12T06:36:07;19.60;88.50
2897;DHT22;1458;49.728;9.228;2022-07-12T06:38:34;20.10;87.60
2897;DHT22;1458;49.728;9.228;2022-07-12T06:41:01;20.10;85.30
2897;DHT22;1458;49.728;9.228;2022-07-12T06:43:33;20.20;85.20
2897;DHT22;1458;49.728;9.228;2022-07-12T06:46:00;20.30;85.10
2897;DHT22;1458;49.728;9.228;2022-07-12T06:48:37;20.50;85.00
2897;DHT22;1458;49.728;9.228;2022-07-12T06:51:07;20.60;85.60
2897;DHT22;1458;49.728;9.228;2022-07-12T06:53:35;20.60;84.30
2897;DHT22;1458;49.728;9.228;2022-07-12T06:56:08;20.60;83.30
2897;DHT22;1458;49.728;9.228;2022-07-12T06:58:36;20.50;83.60
2897;DHT22;1458;49.728;9.228;2022-07-12T07:01:09;20.50;83.30
2897;DHT22;1458;49.728;9.228;2022-07-12T07:03:38;20.20;84.20
2897;DHT22;1458;49.728;9.228;2022-07-12T07:06:08;20.60;83.60
2897;DHT22;1458;49.728;9.228;2022-07-12T07:08:37;21.00;84.30
2897;DHT22;1458;49.728;9.228;2022-07-12T07:11:08;21.00;83.50
2897;DHT22;1458;49.728;9.228;2022-07-12T07:13:36;21.10;83.40
2897;DHT22;1458;49.728;9.228;2022-07-12T07:16:07;21.10;82.70
2897;DHT22;1458;49.728;9.228;2022-07-12T07:18:35;21.20;82.90
2897;DHT22;1458;49.728;9.228;2022-07-12T07:21:06;21.40;81.80
2897;DHT22;1458;49.728;9.228;2022-07-12T07:23:33;21.20;81.10
2897;DHT22;1458;49.728;9.228;2022-07-12T07:26:01;21.20;80.80
2897;DHT22;1458;49.728;9.228;2022-07-12T07:28:36;21.90;81.60
2897;DHT22;1458;49.728;9.228;2022-07-12T07:31:24;22.30;77.80
2897;DHT22;1458;49.728;9.228;2022-07-12T07:33:50;22.60;77.40
2897;DHT22;1458;49.728;9.228;2022-07-12T07:36:19;22.60;76.70
2897;DHT22;1458;49.728;9.228;2022-07-12T07:38:47;22.40;74.90
2897;DHT22;1458;49.728;9.228;2022-07-12T07:41:14;22.50;75.80
2897;DHT22;1458;49.728;9.228;2022-07-12T07:43:42;22.50;74.80
2897;DHT22;1458;49.728;9.228;2022-07-12T07:46:09;22.30;75.30
2897;DHT22;1458;49.728;9.228;2022-07-12T07:48:37;22.00;76.60
2897;DHT22;1458;49.728;9.228;2022-07-12T07:51:07;22.20;77.90
2897;DHT22;1458;49.728;9.228;2022-07-12T07:53:36;22.40;76.50
2897;DHT22;1458;49.728;9.228;2022-07-12T07:56:07;22.40;76.00
2897;DHT22;1458;49.728;9.228;2022-07-12T07:58:34;22.90;75.40
2897;DHT22;1458;49.728;9.228;2022-07-12T08:01:02;23.10;73.00
2897;DHT22;1458;49.728;9.228;2022-07-12T08:03:36;23.00;72.60
2897;DHT22;1458;49.728;9.228;2022-07-12T08:06:07;22.90;72.70
2897;DHT22;1458;49.728;9.228;2022-07-12T08:08:36;23.10;72.10
2897;DHT22;1458;49.728;9.228;2022-07-12T08:11:07;23.10;71.90
2897;DHT22;1458;49.728;9.228;2022-07-12T08:13:34;23.20;71.30
2897;DHT22;1458;49.728;9.228;2022-07-12T08:16:06;24.00;70.90
2897;DHT22;1458;49.728;9.228;2022-07-12T08:18:33;24.60;66.30
2897;DHT22;1458;49.728;9.228;2022-07-12T08:21:01;24.40;65.50
2897;DHT22;1458;49.728;9.228;2022-07-12T08:23:32;24.00;65.30
2897;DHT22;1458;49.728;9.228;2022-07-12T08:26:01;23.60;66.80
2897;DHT22;1458;49.728;9.228;2022-07-12T08:28:35;23.10;67.80
2897;DHT22;1458;49.728;9.228;2022-07-12T08:31:06;22.60;68.80
2897;DHT22;1458;49.728;9.228;2022-07-12T08:33:34;22.40;69.70
2897;DHT22;1458;49.728;9.228;2022-07-12T08:36:07;22.30;70.40
2897;DHT22;1458;49.728;9.228;2022-07-12T08:41:16;22.00;70.90
2897;DHT22;1458;49.728;9.228;2022-07-12T08:43:44;21.90;71.20
2897;DHT22;1458;49.728;9.228;2022-07-12T08:46:13;21.80;71.30
2897;DHT22;1458;49.728;9.228;2022-07-12T08:48:42;21.70;71.90
2897;DHT22;1458;49.728;9.228;2022-07-12T08:51:11;21.80;72.00
2897;DHT22;1458;49.728;9.228;2022-07-12T08:53:40;21.70;71.80
2897;DHT22;1458;49.728;9.228;2022-07-12T08:56:33;21.60;73.30
2897;DHT22;1458;49.728;9.228;2022-07-12T08:59:11;21.80;73.50
2897;DHT22;1458;49.728;9.228;2022-07-12T09:01:41;22.20;72.50
2897;DHT22;1458;49.728;9.228;2022-07-12T09:04:11;22.60;73.00
2897;DHT22;1458;49.728;9.228;2022-07-12T09:06:39;23.10;71.00
2897;DHT22;1458;49.728;9.228;2022-07-12T09:09:07;23.50;66.40
2897;DHT22;1458;49.728;9.228;2022-07-12T09:11:39;24.00;64.00
2897;DHT22;1458;49.728;9.228;2022-07-12T09:14:18;24.00;65.30
2897;DHT22;1458;49.728;9.228;2022-07-12T09:16:58;24.50;62.60
2897;DHT22;1458;49.728;9.228;2022-07-12T09:19:27;24.90;60.30
2897;DHT22;1458;49.728;9.228;2022-07-12T09:21:55;25.00;56.90
2897;DHT22;1458;49.728;9.228;2022-07-12T09:24:25;25.30;56.90
2897;DHT22;1458;49.728;9.228;2022-07-12T09:26:57;25.20;53.60
2897;DHT22;1458;49.728;9.228;2022-07-12T09:29:27;25.00;51.60
2897;DHT22;1458;49.728;9.228;2022-07-12T09:31:55;24.70;51.60
2897;DHT22;1458;49.728;9.228;2022-07-12T09:34:37;24.20;53.30
2897;DHT22;1458;49.728;9.228;2022-07-12T09:37:23;24.00;55.10
2897;DHT22;1458;49.728;9.228;2022-07-12T09:39:52;24.20;55.80
2897;DHT22;1458;49.728;9.228;2022-07-12T09:42:22;24.00;55.40
2897;DHT22;1458;49.728;9.228;2022-07-12T09:44:53;23.90;56.50
2897;DHT22;1458;49.728;9.228;2022-07-12T09:47:23;23.90;57.60
2897;DHT22;1458;49.728;9.228;2022-07-12T09:49:52;23.60;60.20
2897;DHT22;1458;49.728;9.228;2022-07-12T09:52:21;23.70;60.00
2897;DHT22;1458;49.728;9.228;2022-07-12T09:54:50;23.60;60.10
2897;DHT22;1458;49.728;9.228;2022-07-12T09:57:26;23.40;59.30
2897;DHT22;1458;49.728;9.228;2022-07-12T09:59:54;23.10;60.70
2897;DHT22;1458;49.728;9.228;2022-07-12T10:02:24;23.30;62.90
2897;DHT22;1458;49.728;9.228;2022-07-12T10:04:52;23.90;61.60
2897;DHT22;1458;49.728;9.228;2022-07-12T10:07:22;24.00;58.70
2897;DHT22;1458;49.728;9.228;2022-07-12T10:09:52;23.70;59.00
2897;DHT22;1458;49.728;9.228;2022-07-12T10:12:22;24.10;59.60
2897;DHT22;1458;49.728;9.228;2022-07-12T10:14:55;24.60;59.10
2897;DHT22;1458;49.728;9.228;2022-07-12T10:17:26;25.20;57.10
2897;DHT22;1458;49.728;9.228;2022-07-12T10:20:13;25.20;53.30
2897;DHT22;1458;49.728;9.228;2022-07-12T10:22:42;25.20;52.60
2897;DHT22;1458;49.728;9.228;2022-07-12T10:25:34;25.50;53.50
2897;DHT22;1458;49.728;9.228;2022-07-12T10:28:03;25.80;51.90
2897;DHT22;1458;49.728;9.228;2022-07-12T10:30:31;25.90;51.90
2897;DHT22;1458;49.728;9.228;2022-07-12T10:33:15;26.20;49.10
2897;DHT22;1458;49.728;9.228;2022-07-12T10:35:58;26.10;46.90
2897;DHT22;1458;49.728;9.228;2022-07-12T10:38:26;25.90;49.10
2897;DHT22;1458;49.728;9.228;2022-07-12T10:40:54;25.80;46.10
2897;DHT22;1458;49.728;9.228;2022-07-12T10:43:28;25.80;47.90
2897;DHT22;1458;49.728;9.228;2022-07-12T10:46:19;25.60;48.00
2897;DHT22;1458;49.728;9.228;2022-07-12T10:48:51;25.70;47.00
2897;DHT22;1458;49.728;9.228;2022-07-12T10:51:33;25.70;48.20
2897;DHT22;1458;49.728;9.228;2022-07-12T10:54:19;25.90;46.10
2897;DHT22;1458;49.728;9.228;2022-07-12T10:56:55;26.10;46.80
2897;DHT22;1458;49.728;9.228;2022-07-12T10:59:26;26.20;46.00
2897;DHT22;1458;49.728;9.228;2022-07-12T11:01:55;25.80;46.40
2897;DHT22;1458;49.728;9.228;2022-07-12T11:04:23;25.60;47.60
2897;DHT22;1458;49.728;9.228;2022-07-12T11:06:53;25.70;46.50
2897;DHT22;1458;49.728;9.228;2022-07-12T11:09:23;25.70;46.20
2897;DHT22;1458;49.728;9.228;2022-07-12T11:11:52;25.80;47.60
2897;DHT22;1458;49.728;9.228;2022-07-12T11:14:21;25.60;46.30
2897;DHT22;1458;49.728;9.228;2022-07-12T11:16:53;26.00;46.30
2897;DHT22;1458;49.728;9.228;2022-07-12T11:19:23;26.30;45.10
2897;DHT22;1458;49.728;9.228;2022-07-12T11:21:51;26.00;44.10
2897;DHT22;1458;49.728;9.228;2022-07-12T11:24:32;25.70;44.60
2897;DHT22;1458;49.728;9.228;2022-07-12T11:27:01;25.70;45.80
2897;DHT22;1458;49.728;9.228;2022-07-12T11:29:30;25.80;45.40
2897;DHT22;1458;49.728;9.228;2022-07-12T11:32:04;26.10;43.90
2897;DHT22;1458;49.728;9.228;2022-07-12T11:34:34;26.00;44.20
2897;DHT22;1458;49.728;9.228;2022-07-12T11:37:02;25.60;44.30
2897;DHT22;1458;49.728;9.228;2022-07-12T11:39:31;25.60;44.70
2897;DHT22;1458;49.728;9.228;2022-07-12T11:41:59;25.50;44.50
2897;DHT22;1458;49.728;9.228;2022-07-12T11:44:42;25.50;45.70
2897;DHT22;1458;49.728;9.228;2022-07-12T11:47:13;25.30;45.70
2897;DHT22;1458;49.728;9.228;2022-07-12T11:49:43;25.60;46.60
2897;DHT22;1458;49.728;9.228;2022-07-12T11:52:12;25.50;44.30
2897;DHT22;1458;49.728;9.228;2022-07-12T11:54:40;25.30;46.40
2897;DHT22;1458;49.728;9.228;2022-07-12T11:57:08;25.60;44.70
2897;DHT22;1458;49.728;9.228;2022-07-12T11:59:37;26.00;44.10
2897;DHT22;1458;49.728;9.228;2022-07-12T12:02:05;25.90;42.10
2897;DHT22;1458;49.728;9.228;2022-07-12T12:04:45;25.80;44.40
2897;DHT22;1458;49.728;9.228;2022-07-12T12:07:15;25.80;43.80
2897;DHT22;1458;49.728;9.228;2022-07-12T12:10:03;26.40;44.50
2897;DHT22;1458;49.728;9.228;2022-07-12T12:12:43;26.20;41.90
2897;DHT22;1458;49.728;9.228;2022-07-12T12:15:12;26.20;42.40
2897;DHT22;1458;49.728;9.228;2022-07-12T12:17:46;26.60;43.30
2897;DHT22;1458;49.728;9.228;2022-07-12T12:20:22;27.10;39.50
2897;DHT22;1458;49.728;9.228;2022-07-12T12:22:51;26.80;40.50
2897;DHT22;1458;49.728;9.228;2022-07-12T12:25:20;26.90;39.00
2897;DHT22;1458;49.728;9.228;2022-07-12T12:27:49;26.90;38.30
2897;DHT22;1458;49.728;9.228;2022-07-12T12:30:21;27.00;38.40
2897;DHT22;1458;49.728;9.228;2022-07-12T12:32:52;27.00;38.40
2897;DHT22;1458;49.728;9.228;2022-07-12T12:35:29;27.00;38.90
2897;DHT22;1458;49.728;9.228;2022-07-12T12:37:59;26.70;38.10
2897;DHT22;1458;49.728;9.228;2022-07-12T12:40:28;26.60;38.00
2897;DHT22;1458;49.728;9.228;2022-07-12T12:43:05;26.40;37.90
2897;DHT22;1458;49.728;9.228;2022-07-12T12:45:48;26.40;37.80
2897;DHT22;1458;49.728;9.228;2022-07-12T12:48:18;26.20;37.10
2897;DHT22;1458;49.728;9.228;2022-07-12T12:50:49;26.00;37.10
2897;DHT22;1458;49.728;9.228;2022-07-12T12:53:20;26.30;38.50
2897;DHT22;1458;49.728;9.228;2022-07-12T12:55:50;26.50;38.00
2897;DHT22;1458;49.728;9.228;2022-07-12T12:58:19;26.70;36.70
2897;DHT22;1458;49.728;9.228;2022-07-12T13:00:48;26.40;37.00
2897;DHT22;1458;49.728;9.228;2022-07-12T13:03:20;26.60;37.40
2897;DHT22;1458;49.728;9.228;2022-07-12T13:05:51;27.00;34.80
2897;DHT22;1458;49.728;9.228;2022-07-12T13:08:19;26.80;34.30
2897;DHT22;1458;49.728;9.228;2022-07-12T13:10:47;26.90;34.50
2897;DHT22;1458;49.728;9.228;2022-07-12T13:13:37;26.80;34.00
2897;DHT22;1458;49.728;9.228;2022-07-12T13:16:10;26.80;34.80
2897;DHT22;1458;49.728;9.228;2022-07-12T13:18:38;27.20;35.10
2897;DHT22;1458;49.728;9.228;2022-07-12T13:21:13;27.10;33.30
2897;DHT22;1458;49.728;9.228;2022-07-12T13:23:43;26.80;33.40
2897;DHT22;1458;49.728;9.228;2022-07-12T13:26:11;26.60;33.50
2897;DHT22;1458;49.728;9.228;2022-07-12T13:28:38;26.80;33.10
2897;DHT22;1458;49.728;9.228;2022-07-12T13:31:09;26.50;32.90
2897;DHT22;1458;49.728;9.228;2022-07-12T13:33:37;26.50;34.70
2897;DHT22;1458;49.728;9.228;2022-07-12T13:36:10;27.20;33.50
2897;DHT22;1458;49.728;9.228;2022-07-12T13:38:39;27.50;30.40
2897;DHT22;1458;49.728;9.228;2022-07-12T13:41:10;27.30;31.20
2897;DHT22;1458;49.728;9.228;2022-07-12T13:43:37;27.20;30.30
2897;DHT22;1458;49.728;9.228;2022-07-12T13:46:08;27.30;30.90
2897;DHT22;1458;49.728;9.228;2022-07-12T13:48:36;27.40;31.40
2897;DHT22;1458;49.728;9.228;2022-07-12T13:51:12;27.30;29.40
2897;DHT22;1458;49.728;9.228;2022-07-12T13:53:43;27.40;29.30
2897;DHT22;1458;49.728;9.228;2022-07-12T13:56:10;27.30;30.20
2897;DHT22;1458;49.728;9.228;2022-07-12T13:58:37;27.10;29.60
2897;DHT22;1458;49.728;9.228;2022-07-12T14:01:08;27.20;30.30
2897;DHT22;1458;49.728;9.228;2022-07-12T14:03:36;27.10;30.60
2897;DHT22;1458;49.728;9.228;2022-07-12T14:06:09;27.20;29.20
2897;DHT22;1458;49.728;9.228;2022-07-12T14:08:45;27.10;29.40
2897;DHT22;1458;49.728;9.228;2022-07-12T14:11:13;27.00;30.30
2897;DHT22;1458;49.728;9.228;2022-07-12T14:13:40;27.10;29.90
2897;DHT22;1458;49.728;9.228;2022-07-12T14:16:10;27.00;29.50
2897;DHT22;1458;49.728;9.228;2022-07-12T14:18:40;27.00;30.40
2897;DHT22;1458;49.728;9.228;2022-07-12T14:21:10;26.80;30.00
2897;DHT22;1458;49.728;9.228;2022-07-12T14:23:37;26.80;30.70
2897;DHT22;1458;49.728;9.228;2022-07-12T14:26:10;26.70;31.20
2897;DHT22;1458;49.728;9.228;2022-07-12T14:28:38;27.10;29.90
2897;DHT22;1458;49.728;9.228;2022-07-12T14:31:11;27.30;30.00
2897;DHT22;1458;49.728;9.228;2022-07-12T14:33:39;27.80;28.90
2897;DHT22;1458;49.728;9.228;2022-07-12T14:36:09;27.90;26.90
2897;DHT22;1458;49.728;9.228;2022-07-12T14:38:37;27.80;26.70
2897;DHT22;1458;49.728;9.228;2022-07-12T14:41:12;28.00;27.70
2897;DHT22;1458;49.728;9.228;2022-07-12T14:43:40;28.00;27.00
2897;DHT22;1458;49.728;9.228;2022-07-12T14:46:14;28.30;26.40
2897;DHT22;1458;49.728;9.228;2022-07-12T14:48:42;28.20;25.70
2897;DHT22;1458;49.728;9.228;2022-07-12T14:51:10;27.90;26.70
2897;DHT22;1458;49.728;9.228;2022-07-12T14:53:37;27.70;25.90
2897;DHT22;1458;49.728;9.228;2022-07-12T14:56:12;27.60;27.80
2897;DHT22;1458;49.728;9.228;2022-07-12T14:58:40;28.00;27.50
2897;DHT22;1458;49.728;9.228;2022-07-12T15:01:14;28.10;26.20
2897;DHT22;1458;49.728;9.228;2022-07-12T15:03:41;28.10;26.60
2897;DHT22;1458;49.728;9.228;2022-07-12T15:06:12;28.30;25.80
2897;DHT22;1458;49.728;9.228;2022-07-12T15:08:39;28.30;25.90
2897;DHT22;1458;49.728;9.228;2022-07-12T15:11:09;28.20;25.80
2897;DHT22;1458;49.728;9.228;2022-07-12T15:13:38;28.00;25.70
2897;DHT22;1458;49.728;9.228;2022-07-12T15:16:12;27.90;26.30
2897;DHT22;1458;49.728;9.228;2022-07-12T15:18:40;28.00;25.60
2897;DHT22;1458;49.728;9.228;2022-07-12T15:21:11;28.20;26.40
2897;DHT22;1458;49.728;9.228;2022-07-12T15:23:38;28.10;25.70
2897;DHT22;1458;49.728;9.228;2022-07-12T15:26:09;27.90;26.30
2897;DHT22;1458;49.728;9.228;2022-07-12T15:28:50;27.60;25.40
2897;DHT22;1458;49.728;9.228;2022-07-12T15:31:19;27.60;25.70
2897;DHT22;1458;49.728;9.228;2022-07-12T15:33:47;27.70;25.40
2897;DHT22;1458;49.728;9.228;2022-07-12T15:36:16;27.80;25.50
2897;DHT22;1458;49.728;9.228;2022-07-12T15:38:44;27.70;25.40
2897;DHT22;1458;49.728;9.228;2022-07-12T15:41:13;27.50;25.60
2897;DHT22;1458;49.728;9.228;2022-07-12T15:43:42;27.30;26.30
2897;DHT22;1458;49.728;9.228;2022-07-12T15:46:13;27.30;26.50
2897;DHT22;1458;49.728;9.228;2022-07-12T15:48:40;27.40;25.20
2897;DHT22;1458;49.728;9.228;2022-07-12T15:51:11;27.30;26.70
2897;DHT22;1458;49.728;9.228;2022-07-12T15:53:41;27.30;25.10
2897;DHT22;1458;49.728;9.228;2022-07-12T15:56:11;27.20;25.40
2897;DHT22;1458;49.728;9.228;2022-07-12T15:58:39;27.10;25.90
2897;DHT22;1458;49.728;9.228;2022-07-12T16:01:12;27.10;26.30
2897;DHT22;1458;49.728;9.228;2022-07-12T16:03:40;27.30;25.10
2897;DHT22;1458;49.728;9.228;2022-07-12T16:06:11;27.40;25.30
2897;DHT22;1458;49.728;9.228;2022-07-12T16:08:39;27.50;25.30
2897;DHT22;1458;49.728;9.228;2022-07-12T16:11:15;27.50;25.30
2897;DHT22;1458;49.728;9.228;2022-07-12T16:13:42;27.80;23.80
2897;DHT22;1458;49.728;9.228;2022-07-12T16:16:11;27.80;23.10
2897;DHT22;1458;49.728;9.228;2022-07-12T16:18:39;27.60;23.50
2897;DHT22;1458;49.728;9.228;2022-07-12T16:21:09;27.80;23.00
2897;DHT22;1458;49.728;9.228;2022-07-12T16:23:37;27.80;21.70